createdAt,value
2022-10-19T00:01:33.069Z,100.00
2022-10-19T00:04:35.050Z,100.00
2022-10-19T00:07:37.457Z,100.00
2022-10-19T00:10:40.942Z,100.00
2022-10-19T00:13:43.887Z,100.00
2022-10-19T00:16:47.626Z,100.00
2022-10-19T00:19:49.829Z,99.80
2022-10-19T00:22:51.857Z,98.86
2022-10-19T00:25:57.520Z,97.90
2022-10-19T00:29:00.048Z,97.38
2022-10-19T00:32:02.360Z,97.37
2022-10-19T00:35:04.627Z,97.39
2022-10-19T00:38:06.892Z,97.50
2022-10-19T00:41:09.118Z,96.93
2022-10-19T00:44:15.794Z,96.39
2022-10-19T00:47:19.561Z,95.58
2022-10-19T00:50:21.879Z,95.80
2022-10-19T00:53:26.621Z,96.02
2022-10-19T00:56:28.904Z,97.15
2022-10-19T00:59:32.312Z,98.03
2022-10-19T01:02:35.539Z,98.88
2022-10-19T01:05:38.749Z,99.70
2022-10-19T01:08:41.026Z,100.00
2022-10-19T01:11:48.854Z,100.00
2022-10-19T01:15:12.805Z,100.00
2022-10-19T01:18:27.245Z,100.00
2022-10-19T01:21:34.777Z,100.00
2022-10-19T01:24:51.570Z,100.00
2022-10-19T01:28:14.810Z,100.00
2022-10-19T01:31:49.659Z,100.00
2022-10-19T01:35:03.096Z,100.00
2022-10-19T01:38:26.972Z,100.00
2022-10-19T01:41:40.240Z,100.00
2022-10-19T01:44:44.571Z,100.00
2022-10-19T01:48:03.318Z,100.00
2022-10-19T01:51:15.144Z,100.00
2022-10-19T01:54:18.222Z,100.00
2022-10-19T01:57:26.896Z,100.00
2022-10-19T02:00:30.028Z,100.00
2022-10-19T02:03:34.352Z,100.00
2022-10-19T02:06:36.864Z,100.00
2022-10-19T02:09:38.874Z,100.00
2022-10-19T02:12:41.955Z,100.00
2022-10-19T02:15:47.746Z,100.00
2022-10-19T02:18:51.284Z,100.00
2022-10-19T02:21:54.097Z,100.00
2022-10-19T02:24:56.410Z,100.00
2022-10-19T02:27:58.631Z,100.00
2022-10-19T02:31:01.304Z,100.00
2022-10-19T02:34:03.501Z,100.00
2022-10-19T02:37:06.515Z,100.00
2022-10-19T02:40:09.670Z,100.00
2022-10-19T02:43:14.452Z,100.00
2022-10-19T02:46:36.604Z,100.00
2022-10-19T02:49:39.563Z,100.00
2022-10-19T02:52:41.697Z,100.00
2022-10-19T02:55:44.501Z,100.00
2022-10-19T02:58:46.525Z,100.00
2022-10-19T03:01:49.113Z,100.00
2022-10-19T03:04:51.424Z,100.00
2022-10-19T03:07:53.732Z,100.00
2022-10-19T03:10:59.011Z,100.00
2022-10-19T03:14:01.267Z,100.00
2022-10-19T03:17:04.143Z,100.00
2022-10-19T03:20:07.055Z,100.00
2022-10-19T03:23:09.121Z,100.00
2022-10-19T03:26:15.563Z,100.00
2022-10-19T03:29:17.577Z,100.00
2022-10-19T03:32:19.837Z,100.00
2022-10-19T03:35:21.793Z,100.00
2022-10-19T03:38:24.025Z,100.00
2022-10-19T03:41:28.541Z,100.00
2022-10-19T03:44:30.675Z,100.00
2022-10-19T03:47:33.523Z,100.00
2022-10-19T03:50:36.023Z,100.00
2022-10-19T03:53:38.501Z,100.00
2022-10-19T03:56:41.153Z,100.00
2022-10-19T03:59:43.260Z,100.00
2022-10-19T04:02:45.419Z,100.00
2022-10-19T04:05:47.477Z,100.00
2022-10-19T04:08:50.207Z,100.00
2022-10-19T04:11:52.283Z,100.00
2022-10-19T04:14:57.204Z,100.00
2022-10-19T04:17:59.777Z,100.00
2022-10-19T04:21:04.433Z,100.00
2022-10-19T04:24:09.327Z,100.00
2022-10-19T04:27:11.470Z,100.00
2022-10-19T04:30:13.540Z,100.00
2022-10-19T04:33:15.885Z,100.00
2022-10-19T04:36:18.254Z,100.00
2022-10-19T04:39:20.638Z,100.00
2022-10-19T04:42:22.679Z,100.00
2022-10-19T04:45:24.885Z,100.00
2022-10-19T04:48:26.822Z,100.00
2022-10-19T04:51:29.183Z,100.00
2022-10-19T04:54:31.241Z,100.00
2022-10-19T04:57:33.639Z,100.00
2022-10-19T05:00:38.782Z,100.00
2022-10-19T05:03:41.185Z,100.00
2022-10-19T05:06:43.251Z,100.00
2022-10-19T05:09:45.588Z,100.00
2022-10-19T05:12:47.617Z,100.00
2022-10-19T05:15:57.305Z,100.00
2022-10-19T05:18:59.827Z,100.00
2022-10-19T05:22:02.249Z,100.00
2022-10-19T05:25:05.183Z,100.00
2022-10-19T05:28:07.478Z,100.00
2022-10-19T05:31:15.377Z,100.00
2022-10-19T05:34:17.771Z,100.00
2022-10-19T05:37:19.947Z,100.00
2022-10-19T05:40:22.150Z,100.00
2022-10-19T05:43:24.177Z,100.00
2022-10-19T05:46:28.499Z,100.00
2022-10-19T05:49:30.589Z,100.00
2022-10-19T05:52:33.014Z,100.00
2022-10-19T05:55:36.146Z,100.00
2022-10-19T05:58:38.683Z,100.00
2022-10-19T06:01:40.741Z,100.00
2022-10-19T06:04:43.200Z,100.00
2022-10-19T06:07:45.317Z,100.00
2022-10-19T06:10:48.527Z,100.00
2022-10-19T06:13:52.010Z,100.00
2022-10-19T06:16:54.301Z,100.00
2022-10-19T06:19:56.320Z,100.00
2022-10-19T06:22:58.645Z,100.00
2022-10-19T06:26:05.986Z,100.00
2022-10-19T06:29:08.288Z,100.00
2022-10-19T06:32:10.333Z,100.00
2022-10-19T06:35:12.645Z,100.00
2022-10-19T06:38:14.800Z,100.00
2022-10-19T06:41:17.552Z,100.00
2022-10-19T06:44:19.799Z,100.00
2022-10-19T06:47:22.121Z,100.00
2022-10-19T06:50:24.263Z,100.00
2022-10-19T06:53:27.229Z,100.00
2022-10-19T06:56:29.703Z,100.00
2022-10-19T06:59:31.983Z,100.00
2022-10-19T07:02:34.227Z,100.00
2022-10-19T07:05:36.496Z,100.00
2022-10-19T07:08:40.662Z,100.00
2022-10-19T07:11:46.136Z,100.00
2022-10-19T07:14:48.439Z,100.00
2022-10-19T07:17:50.665Z,99.62
2022-10-19T07:21:01.067Z,100.00
2022-10-19T07:24:03.989Z,99.42
2022-10-19T07:27:06.376Z,98.64
2022-10-19T07:30:08.960Z,98.56
2022-10-19T07:33:11.062Z,98.54
2022-10-19T07:36:14.149Z,98.81
2022-10-19T07:39:17.396Z,98.05
2022-10-19T07:42:19.784Z,97.59
2022-10-19T07:45:21.920Z,98.27
2022-10-19T07:48:24.505Z,97.60
2022-10-19T07:54:29.820Z,97.13
2022-10-19T07:57:31.796Z,98.38
2022-10-19T08:00:34.125Z,100.00
2022-10-19T08:04:31.758Z,100.00
2022-10-19T08:06:58.837Z,100.00
2022-10-19T08:10:00.910Z,100.00
2022-10-19T08:13:03.156Z,100.00
2022-10-19T08:16:06.404Z,100.00
2022-10-19T08:19:14.125Z,100.00
2022-10-19T08:22:16.139Z,100.00
2022-10-19T08:25:18.580Z,100.00
2022-10-19T08:28:20.607Z,100.00
2022-10-19T08:31:23.046Z,100.00
2022-10-19T08:34:25.458Z,100.00
2022-10-19T08:37:43.792Z,100.00
2022-10-19T08:40:47.394Z,100.00
2022-10-19T08:44:09.180Z,100.00
2022-10-19T08:47:31.409Z,100.00
2022-10-19T08:50:40.128Z,100.00
2022-10-19T08:54:02.991Z,100.00
2022-10-19T08:57:29.280Z,100.00
2022-10-19T09:01:00.094Z,100.00
2022-10-19T09:04:10.488Z,100.00
2022-10-19T09:07:26.521Z,100.00
2022-10-19T09:10:38.280Z,99.87
2022-10-19T09:14:00.457Z,98.82
2022-10-19T09:17:13.100Z,98.91
2022-10-19T09:20:21.292Z,98.52
2022-10-19T09:23:30.410Z,97.15
2022-10-19T09:26:55.513Z,96.87
2022-10-19T09:29:59.642Z,93.27
2022-10-19T09:33:02.604Z,93.03
2022-10-19T09:36:06.851Z,88.76
2022-10-19T09:39:13.729Z,88.04
2022-10-19T09:42:25.960Z,90.21
2022-10-19T09:45:53.119Z,92.40
2022-10-19T09:48:55.438Z,94.78
2022-10-19T09:51:57.401Z,95.21
2022-10-19T09:55:06.874Z,94.27
2022-10-19T09:58:14.844Z,95.08
2022-10-19T10:01:41.980Z,94.00
2022-10-19T10:05:13.494Z,95.08
2022-10-19T10:08:19.538Z,94.13
2022-10-19T10:11:25.875Z,95.30
2022-10-19T10:14:33.339Z,94.00
2022-10-19T10:17:37.289Z,96.38
2022-10-19T10:21:01.439Z,95.72
2022-10-19T10:24:16.704Z,95.19
2022-10-19T10:27:30.038Z,91.61
2022-10-19T10:30:36.504Z,88.89
2022-10-19T10:33:46.267Z,90.03
2022-10-19T10:36:54.011Z,90.00
2022-10-19T10:40:00.482Z,90.67
2022-10-19T10:43:09.546Z,88.85
2022-10-19T10:46:19.573Z,91.59
2022-10-19T10:49:25.094Z,90.58
2022-10-19T10:52:29.350Z,88.83
2022-10-19T10:55:32.884Z,89.60
2022-10-19T10:58:53.621Z,88.41
2022-10-19T11:02:14.522Z,81.27
2022-10-19T11:05:23.664Z,80.65
2022-10-19T11:08:50.574Z,77.67
2022-10-19T11:11:56.127Z,76.00
2022-10-19T11:15:08.830Z,75.21
2022-10-19T11:18:22.962Z,75.39
2022-10-19T11:21:51.190Z,70.33
2022-10-19T11:25:32.525Z,72.97
2022-10-19T11:28:46.784Z,73.83
2022-10-19T11:31:56.895Z,68.64
2022-10-19T11:35:17.768Z,69.57
2022-10-19T11:38:57.444Z,69.04
2022-10-19T11:42:41.341Z,67.27
2022-10-19T11:45:52.506Z,66.06
2022-10-19T11:49:36.506Z,66.06
2022-10-19T11:53:03.267Z,68.06
2022-10-19T11:56:44.835Z,68.33
2022-10-19T12:00:38.710Z,64.02
2022-10-19T12:03:47.538Z,67.86
2022-10-19T12:07:31.532Z,68.14
2022-10-19T12:10:48.510Z,64.93
2022-10-19T12:13:57.159Z,65.00
2022-10-19T12:17:08.753Z,63.70
2022-10-19T12:20:20.113Z,63.92
2022-10-19T12:23:29.420Z,66.89
2022-10-19T12:26:34.953Z,64.30
2022-10-19T12:29:41.061Z,61.49
2022-10-19T12:33:03.653Z,61.58
2022-10-19T12:36:36.319Z,59.52
2022-10-19T12:39:43.534Z,56.00
2022-10-19T12:42:54.428Z,58.07
2022-10-19T12:46:11.229Z,57.99
2022-10-19T12:49:37.158Z,57.66
2022-10-19T12:52:48.172Z,58.94
2022-10-19T12:56:08.970Z,56.61
2022-10-19T12:59:22.954Z,57.81
2022-10-19T13:02:29.606Z,56.29
2022-10-19T13:05:33.542Z,56.62
2022-10-19T13:08:46.758Z,56.24
2022-10-19T13:12:21.351Z,53.81
2022-10-19T13:15:35.209Z,57.23
2022-10-19T13:19:15.719Z,59.08
2022-10-19T13:22:26.691Z,56.42
2022-10-19T13:25:35.418Z,58.86
2022-10-19T13:28:38.637Z,60.31
2022-10-19T13:31:41.122Z,63.26
2022-10-19T13:34:43.350Z,62.08
2022-10-19T13:37:45.728Z,63.25
2022-10-19T13:40:47.740Z,61.55
2022-10-19T13:43:51.144Z,63.83
2022-10-19T13:47:14.982Z,67.60
2022-10-19T13:50:25.737Z,69.91
2022-10-19T13:53:57.764Z,73.76
2022-10-19T13:57:38.697Z,76.31
2022-10-19T14:01:18.161Z,74.86
2022-10-19T14:04:43.568Z,74.03
2022-10-19T14:08:04.362Z,73.68
2022-10-19T14:11:16.202Z,72.18
2022-10-19T14:14:22.247Z,74.10
2022-10-19T14:17:34.091Z,73.43
2022-10-19T14:20:38.680Z,70.59
2022-10-19T14:23:41.162Z,69.86
2022-10-19T14:26:43.245Z,70.43
2022-10-19T14:29:47.759Z,69.27
2022-10-19T14:32:49.875Z,68.02
2022-10-19T14:35:52.940Z,70.98
2022-10-19T14:38:56.169Z,69.51
2022-10-19T14:42:04.656Z,68.75
2022-10-19T14:45:18.310Z,70.08
2022-10-19T14:48:20.698Z,69.06
2022-10-19T14:51:30.510Z,67.78
2022-10-19T14:54:38.942Z,66.79
2022-10-19T14:57:43.047Z,66.45
2022-10-19T15:00:48.011Z,66.99
2022-10-19T15:03:50.545Z,65.82
2022-10-19T15:06:54.028Z,66.64
2022-10-19T15:09:58.687Z,66.65
2022-10-19T15:13:03.871Z,66.19
2022-10-19T15:16:06.274Z,66.59
2022-10-19T15:19:17.403Z,67.85
2022-10-19T15:22:41.669Z,67.90
2022-10-19T15:25:43.968Z,66.96
2022-10-19T15:28:47.428Z,67.05
2022-10-19T15:31:50.591Z,66.61
2022-10-19T15:34:52.732Z,68.71
2022-10-19T15:38:27.396Z,69.53
2022-10-19T15:41:32.525Z,68.16
2022-10-19T15:44:44.421Z,67.92
2022-10-19T15:48:25.136Z,69.35
2022-10-19T15:51:27.712Z,68.64
2022-10-19T15:54:30.055Z,69.34
2022-10-19T15:57:35.007Z,70.10
2022-10-19T16:00:38.139Z,68.64
2022-10-19T16:03:40.502Z,69.44
2022-10-19T16:06:45.257Z,70.34
2022-10-19T16:09:47.675Z,70.97
2022-10-19T16:12:49.865Z,71.79
2022-10-19T16:16:01.382Z,72.20
2022-10-19T16:19:13.435Z,73.40
2022-10-19T16:22:17.157Z,73.56
2022-10-19T16:25:19.886Z,74.57
2022-10-19T16:28:23.253Z,74.21
2022-10-19T16:31:25.347Z,74.89
2022-10-19T16:34:27.973Z,73.71
2022-10-19T16:37:30.038Z,73.12
2022-10-19T16:40:32.814Z,74.13
2022-10-19T16:43:35.668Z,73.47
2022-10-19T16:46:38.610Z,73.33
2022-10-19T16:49:40.671Z,72.78
2022-10-19T16:52:43.147Z,73.34
2022-10-19T16:55:45.937Z,73.55
2022-10-19T16:58:49.590Z,72.93
2022-10-19T17:01:52.251Z,74.40
2022-10-19T17:04:54.495Z,74.10
2022-10-19T17:07:57.971Z,74.50
2022-10-19T17:11:17.022Z,73.62
2022-10-19T17:14:19.195Z,73.43
2022-10-19T17:17:21.599Z,74.48
2022-10-19T17:20:23.827Z,74.49
2022-10-19T17:23:26.298Z,74.58
2022-10-19T17:26:31.315Z,73.90
2022-10-19T17:29:33.913Z,74.20
2022-10-19T17:32:36.283Z,74.97
2022-10-19T17:35:38.703Z,73.85
2022-10-19T17:38:41.723Z,75.19
2022-10-19T17:41:45.662Z,74.05
2022-10-19T17:44:48.312Z,74.26
2022-10-19T17:47:50.720Z,74.62
2022-10-19T17:50:57.674Z,74.98
2022-10-19T17:54:02.624Z,75.15
2022-10-19T17:57:04.843Z,74.85
2022-10-19T18:00:08.130Z,75.56
2022-10-19T18:03:14.516Z,75.43
2022-10-19T18:06:23.628Z,76.66
2022-10-19T18:09:26.629Z,76.59
2022-10-19T18:12:29.543Z,77.52
2022-10-19T18:15:31.703Z,77.35
2022-10-19T18:18:36.943Z,78.07
2022-10-19T18:21:40.816Z,77.93
2022-10-19T18:24:43.243Z,78.58
2022-10-19T18:27:45.507Z,78.20
2022-10-19T18:30:47.790Z,77.27
2022-10-19T18:33:57.285Z,78.94
2022-10-19T18:37:00.826Z,78.79
2022-10-19T18:40:03.053Z,78.56
2022-10-19T18:43:06.635Z,78.84
2022-10-19T18:46:10.474Z,79.42
2022-10-19T18:49:13.282Z,80.31
2022-10-19T18:52:17.266Z,79.47
2022-10-19T18:55:21.798Z,80.13
2022-10-19T18:58:24.371Z,79.55
2022-10-19T19:01:28.507Z,79.58
2022-10-19T19:04:30.707Z,80.00
2022-10-19T19:07:33.371Z,80.60
2022-10-19T19:10:35.622Z,79.13
2022-10-19T19:13:39.042Z,80.55
2022-10-19T19:16:42.909Z,80.10
2022-10-19T19:19:45.384Z,81.34
2022-10-19T19:22:47.587Z,81.85
2022-10-19T19:25:50.042Z,82.73
2022-10-19T19:28:52.317Z,83.61
2022-10-19T19:31:54.687Z,83.86
2022-10-19T19:34:56.922Z,84.03
2022-10-19T19:38:00.056Z,84.51
2022-10-19T19:41:07.670Z,84.98
2022-10-19T19:44:10.221Z,85.25
2022-10-19T19:47:12.641Z,84.89
2022-10-19T19:50:15.363Z,85.41
2022-10-19T19:53:17.987Z,85.80
2022-10-19T19:56:21.495Z,85.78
2022-10-19T19:59:24.113Z,86.53
2022-10-19T20:02:26.957Z,86.19
2022-10-19T20:05:29.735Z,86.16
2022-10-19T20:08:32.589Z,86.98
2022-10-19T20:11:37.250Z,86.44
2022-10-19T20:14:42.645Z,87.33
2022-10-19T20:17:45.795Z,87.03
2022-10-19T20:20:49.268Z,86.41
2022-10-19T20:23:55.334Z,86.29
2022-10-19T20:26:57.828Z,86.54
2022-10-19T20:29:59.981Z,86.69
2022-10-19T20:33:20.774Z,87.12
2022-10-19T20:36:24.754Z,87.21
2022-10-19T20:39:27.312Z,87.28
2022-10-19T20:42:29.517Z,88.12
2022-10-19T20:45:31.989Z,88.41
2022-10-19T20:48:34.811Z,89.10
2022-10-19T20:51:38.012Z,89.78
2022-10-19T20:54:40.724Z,89.65
2022-10-19T20:57:43.202Z,90.73
2022-10-19T21:00:45.269Z,90.33
2022-10-19T21:03:59.187Z,90.48
2022-10-19T21:07:01.334Z,90.31
2022-10-19T21:10:03.847Z,90.12
2022-10-19T21:13:05.859Z,90.83
2022-10-19T21:16:10.051Z,90.41
2022-10-19T21:19:17.525Z,89.42
2022-10-19T21:22:19.802Z,90.11
2022-10-19T21:25:21.891Z,90.14
2022-10-19T21:28:24.115Z,91.24
2022-10-19T21:31:27.019Z,91.18
2022-10-19T21:34:31.063Z,91.67
2022-10-19T21:37:33.322Z,91.24
2022-10-19T21:40:36.526Z,91.10
2022-10-19T21:43:38.754Z,91.94
2022-10-19T21:46:42.999Z,91.76
2022-10-19T21:49:45.100Z,92.96
2022-10-19T21:52:47.341Z,92.65
2022-10-19T21:55:50.856Z,92.03
2022-10-19T21:58:54.188Z,92.23
2022-10-19T22:01:57.605Z,91.07
2022-10-19T22:05:00.002Z,91.41
2022-10-19T22:08:03.103Z,91.02
2022-10-19T22:11:07.645Z,90.11
2022-10-19T22:14:14.298Z,88.51
2022-10-19T22:17:17.513Z,90.59
2022-10-19T22:20:20.199Z,91.19
2022-10-19T22:27:27.312Z,91.37
2022-10-19T22:33:38.297Z,91.81
2022-10-19T22:36:40.803Z,92.20
2022-10-19T22:39:43.265Z,91.54
2022-10-19T22:42:45.728Z,92.12
2022-10-19T22:45:49.194Z,91.19
2022-10-19T22:48:51.681Z,89.82
2022-10-19T22:51:53.845Z,90.79
2022-10-19T22:54:56.555Z,88.97
2022-10-19T22:58:14.487Z,89.40
2022-10-19T23:01:17.080Z,89.78
2022-10-19T23:04:19.980Z,90.14
2022-10-19T23:07:22.550Z,89.12
2022-10-19T23:10:25.152Z,87.70
2022-10-19T23:13:28.677Z,88.02
2022-10-19T23:16:31.380Z,87.09
2022-10-19T23:19:34.087Z,86.80
2022-10-19T23:22:36.405Z,86.81
2022-10-19T23:25:38.751Z,88.04
2022-10-19T23:28:42.442Z,86.60
2022-10-19T23:31:48.234Z,86.31
2022-10-19T23:34:50.272Z,86.48
2022-10-19T23:37:52.376Z,86.56
2022-10-19T23:40:54.653Z,86.00
2022-10-19T23:43:59.565Z,85.89
2022-10-19T23:47:01.569Z,86.39
2022-10-19T23:50:04.002Z,87.04
2022-10-19T23:53:05.982Z,86.62
2022-10-19T23:56:23.251Z,86.18
2022-10-19T23:59:25.367Z,85.56
